Cape York — VRXE9 — position and weather

sailwx.info

Track history (hours):
 
Tides and Currents Weather Stations Pressure Air Temp Water Temp Dewpoint Dewpoint Depression Visibility Wind Speed Wind Dir Waves Ship Positions

Cape York

Last reported at 2016-May-25 08:10 UTC. Time now 2016-May-30 04:57 UTC.
Position N 31°60' E 120°49'.

Length 170 m; draft 6.1 m.

Type: Cargo ship. MMSI: 477924000.

Date/timePositionNaut miles runAvg speedWind from/ knotsBaromVisibWave heightAir tempDewpointWater temp
2016-May-25 08:10N 31°60' E 120°49'5 7.7
2016-May-25 07:31N 32°00' E 120°43'1212.0
2016-May-25 06:31N 32°02' E 120°29'1413.8
2016-May-25 05:31N 31°56' E 120°14'1412.4
2016-May-25 04:23N 31°60' E 119°59'  
2016-May-17 05:25N 32°00' E 119°59'7 8.2
2016-May-17 04:32N 31°57' E 120°07'8 7.1
2016-May-17 03:27N 31°57' E 120°16'15 7.4
2016-May-17 01:25N 32°01' E 120°32'7 6.7
2016-May-17 00:21N 32°00' E 120°41'7 7.0
2016-May-16 23:21N 32°00' E 120°49'19 6.6
2016-May-16 20:28N 31°46' E 121°04'7 8.1
2016-May-16 19:33N 31°41' E 121°11'8 8.3
2016-May-16 18:33N 31°35' E 121°18'8 8.0
2016-May-16 17:33N 31°30' E 121°25'8 7.7
2016-May-16 16:31N 31°25' E 121°32'  
Track history (hours):
 
Tides and Currents Weather Stations Pressure Air Temp Water Temp Dewpoint Dewpoint Depression Visibility Wind Speed Wind Dir Waves Ship Positions

Cape York

Last reported at 2016-May-25 08:10 UTC. Time now 2016-May-30 04:57 UTC.
Position N 31°60' E 120°49'.

Length 170 m; draft 6.1 m.

Type: Cargo ship. MMSI: 477924000.

Date/timePositionNaut miles runAvg speedWind from/ knotsBaromVisibWave heightAir tempDewpointWater temp
2016-May-25 08:10N 31°60' E 120°49'5 7.7
2016-May-25 07:31N 32°00' E 120°43'1212.0
2016-May-25 06:31N 32°02' E 120°29'1413.8
2016-May-25 05:31N 31°56' E 120°14'1412.4
2016-May-25 04:23N 31°60' E 119°59'  
2016-May-17 05:25N 32°00' E 119°59'7 8.2
2016-May-17 04:32N 31°57' E 120°07'8 7.1
2016-May-17 03:27N 31°57' E 120°16'15 7.4
2016-May-17 01:25N 32°01' E 120°32'7 6.7
2016-May-17 00:21N 32°00' E 120°41'7 7.0
2016-May-16 23:21N 32°00' E 120°49'19 6.6
2016-May-16 20:28N 31°46' E 121°04'7 8.1
2016-May-16 19:33N 31°41' E 121°11'8 8.3
2016-May-16 18:33N 31°35' E 121°18'8 8.0
2016-May-16 17:33N 31°30' E 121°25'8 7.7
2016-May-16 16:31N 31°25' E 121°32'  

Dump ship's entire track history